TimeMDT,TemperatureF,Dew PointF,Humidity,Sea Level PressureIn,VisibilityMPH,Wind Direction,Wind SpeedMPH,Gust SpeedMPH,PrecipitationIn,Events,Conditions,WindDirDegrees,DateUTC
12:53 AM,27.0,14.0,58,30.16,10.0,NW,3.5,-,N/A,,Clear,320,2011-11-03 06:53:00
1:53 AM,23.0,12.9,65,30.14,10.0,Calm,Calm,-,N/A,,Clear,0,2011-11-03 07:53:00
2:53 AM,27.0,12.9,56,30.09,10.0,West,6.9,-,N/A,,Clear,280,2011-11-03 08:53:00
3:53 AM,26.6,12.2,55,29.96,10.0,SW,4.6,-,N/A,,Clear,230,2011-11-03 09:53:00
4:53 AM,27.0,10.9,51,30.07,10.0,SSW,3.5,-,N/A,,Clear,200,2011-11-03 10:53:00
5:53 AM,26.1,10.9,53,30.07,10.0,Calm,Calm,-,N/A,,Clear,0,2011-11-03 11:53:00
6:53 AM,27.0,10.9,51,30.06,10.0,SSE,3.5,-,N/A,,Clear,160,2011-11-03 12:53:00
7:53 AM,25.0,12.9,60,30.05,10.0,NW,4.6,-,N/A,,Clear,320,2011-11-03 13:53:00
8:53 AM,28.0,10.9,49,30.04,10.0,Calm,Calm,-,N/A,,Clear,0,2011-11-03 14:53:00
9:53 AM,32.0,10.0,40,30.03,10.0,Variable,3.5,-,N/A,,Clear,0,2011-11-03 15:53:00
10:53 AM,34.0,10.9,38,30.00,10.0,West,4.6,-,N/A,,Clear,280,2011-11-03 16:53:00
11:53 AM,37.0,10.9,34,29.95,10.0,Calm,Calm,-,N/A,,Clear,0,2011-11-03 17:53:00
12:53 PM,42.1,12.0,29,29.90,10.0,NW,3.5,-,N/A,,Clear,310,2011-11-03 18:53:00
1:53 PM,46.9,12.0,24,29.86,10.0,Calm,Calm,-,N/A,,Clear,0,2011-11-03 19:53:00
2:53 PM,50.0,10.9,21,29.81,10.0,WNW,4.6,-,N/A,,Clear,290,2011-11-03 20:53:00
3:53 PM,52.0,10.9,19,29.79,10.0,NW,6.9,-,N/A,,Clear,310,2011-11-03 21:53:00
4:53 PM,52.0,10.9,19,29.77,10.0,WNW,5.8,-,N/A,,Clear,300,2011-11-03 22:53:00
5:53 PM,48.0,12.0,24,29.80,10.0,West,5.8,-,N/A,,Clear,270,2011-11-03 23:53:00
6:53 PM,42.1,14.0,32,29.81,10.0,West,6.9,-,N/A,,Clear,270,2011-11-04 00:53:00
7:53 PM,42.8,15.8,34,29.69,10.0,WSW,5.8,-,N/A,,Clear,250,2011-11-04 01:53:00
8:53 PM,36.0,16.0,44,29.82,10.0,Calm,Calm,-,N/A,,Clear,0,2011-11-04 02:53:00
9:53 PM,35.1,16.0,46,29.80,10.0,Calm,Calm,-,N/A,,Clear,0,2011-11-04 03:53:00
10:53 PM,33.8,15.8,48,29.68,10.0,SW,4.6,-,N/A,,Clear,230,2011-11-04 04:53:00
11:53 PM,33.1,16.0,50,29.78,10.0,West,3.5,-,N/A,,Clear,280,2011-11-04 05:53:00